This is the latest recevied weather packets stored in our database for station/object K5GHS-1. If no packets are shown the sender has not sent any weather packets the latest 1 day(s).
| Time | Temp. | Humidity | Pressure | Rain* | Wind** | Luminosity | Snow |
|---|---|---|---|---|---|---|---|
| 1778019277 | 33.89° C | 50% | 1001.6 hPa | 0 mm | 0.89 m/s, 79° | 177 W/m² | - |
| 1778018974 | 33.33° C | 53% | 1001.5 hPa | 0 mm | 0 m/s | 412 W/m² | - |
| 1778018670 | 32.78° C | 53% | 1001.5 hPa | 0 mm | 0 m/s | 499 W/m² | - |
| 1778018368 | 32.22° C | 55% | 1001.8 hPa | 0 mm | 0 m/s | 320 W/m² | - |
| 1778018066 | 32.22° C | 54% | 1002 hPa | 0 mm | 0.45 m/s, 75° | 82 W/m² | - |
| 1778017764 | 32.78° C | 53% | 1001.9 hPa | 0 mm | 0.89 m/s, 202° | 140 W/m² | - |
| 1778017461 | 33.33° C | 52% | 1002 hPa | 0 mm | 0 m/s | 114 W/m² | - |
| 1778017158 | 33.89° C | 51% | 1002.2 hPa | 0 mm | 0.45 m/s, 217° | 269 W/m² | - |
| 1778016856 | 33.33° C | 53% | 1002 hPa | 0 mm | 0 m/s | 473 W/m² | - |
| 1778016552 | 33.33° C | 52% | 1002 hPa | 0 mm | 0.45 m/s, 85° | 486 W/m² | - |
| 1778016249 | 32.78° C | 52% | 1002.1 hPa | 0 mm | 0 m/s | 338 W/m² | - |
| 1778015945 | 32.78° C | 53% | 1002.3 hPa | 0 mm | 0 m/s | 124 W/m² | - |
| 1778015643 | 32.78° C | 54% | 1002.2 hPa | 0 mm | 0.45 m/s, 103° | 573 W/m² | - |
| 1778015339 | 32.78° C | 54% | 1002.4 hPa | 0 mm | 0 m/s | 159 W/m² | - |
| 1778015036 | 32.78° C | 56% | 1002.3 hPa | 0 mm | 0.45 m/s, 221° | 140 W/m² | - |
| 1778014733 | 32.78° C | 55% | 1002.1 hPa | 0 mm | 0.89 m/s, 164° | 613 W/m² | - |
| 1778014431 | 32.22° C | 58% | 1002.4 hPa | 0 mm | 0.45 m/s, 87° | 632 W/m² | - |
| 1778014128 | 32.22° C | 58% | 1002.3 hPa | 0 mm | 0.89 m/s, 155° | 259 W/m² | - |
| 1778013826 | 32.22° C | 58% | 1002.4 hPa | 0 mm | 0 m/s | 449 W/m² | - |
| 1778013523 | 32.22° C | 59% | 1002.6 hPa | 0 mm | 0 m/s | 541 W/m² | - |
| 1778013219 | 32.22° C | 58% | 1002.8 hPa | 0 mm | 0.45 m/s, 248° | 258 W/m² | - |
| 1778012916 | 32.22° C | 59% | 1003.1 hPa | 0 mm | 0.45 m/s, 76° | 530 W/m² | - |
| 1778012612 | 32.22° C | 57% | 1002.8 hPa | 0 mm | 0 m/s | 668 W/m² | - |
| 1778012308 | 31.11° C | 60% | 1002.6 hPa | 0 mm | 0 m/s | 724 W/m² | - |
| 1778012006 | 31.67° C | 61% | 1002.7 hPa | 0 mm | 0.45 m/s, 136° | 156 W/m² | - |
* Rain latest hour (hover to see other rain measurements)
** Current wind speed in m/s (hover to see current wind gust speed)